Tokyo, Japan
Current Conditions -  °F | °C
As of 12:00 AM on Sunday 21 Dec 2014 (Local Time) from RJTT Reporting Station
Scattered Clouds Scattered Clouds  
Wind Chill: 50°   Ceiling: Unl
Heat Index: 50°   Visibility: 6mi
Dew Point: 43°   Wind: 5mph
Humidity: 76%   Direction: 330°NNW
Pressure: 29.65"   Gusts: NA
Location:  35.67°N, 139.77°E
Report Text: RJTT 201500Z 33004KT 260V050 9999 FEW020 SCT050 10/06 Q1004 NOSIG
Loading
Personal Weather Stations






























Interactive Weather Map New forecast layout! Learn more

10-Day Weather Forecast

Advertisements
Track Severe Weather on mobile